Terminal Aerodrome Forecast
Issued by NWS Pocatello, ID

Home | Current Version | Previous Version | Text Only | Print | Product List | Glossary On
Versions: 1 2 3 4 5 6 7 8 9 10 11 12
000
FTUS45 KPIH 060520
TAFBYI
TAF
KBYI 060520Z 0606/0706 22009KT P6SM SCT200
     FM062000 28010G15KT P6SM VCTS SCT060CB BKN110
     FM070200 23011KT P6SM VCSH SCT030 OVC060=

USA.gov is the U.S. government's official web portal to all federal, state and local government web resources and services.